sensor_id;sensor_type;location;lat;lon;timestamp;temperature;humidity
66328;DHT22;53133;52.862;6.602;2023-01-13T00:01:10;9.10;99.90
66328;DHT22;53133;52.862;6.602;2023-01-13T00:03:36;9.00;99.90
66328;DHT22;53133;52.862;6.602;2023-01-13T00:06:02;9.00;99.90
66328;DHT22;53133;52.862;6.602;2023-01-13T00:08:27;8.90;99.90
66328;DHT22;53133;52.862;6.602;2023-01-13T00:10:53;8.90;99.90
66328;DHT22;53133;52.862;6.602;2023-01-13T00:13:19;8.90;99.90
66328;DHT22;53133;52.862;6.602;2023-01-13T00:15:58;8.80;99.90
66328;DHT22;53133;52.862;6.602;2023-01-13T00:18:24;8.80;99.90
66328;DHT22;53133;52.862;6.602;2023-01-13T00:20:59;8.80;99.90
66328;DHT22;53133;52.862;6.602;2023-01-13T00:23:27;8.80;99.90
66328;DHT22;53133;52.862;6.602;2023-01-13T00:25:57;8.70;99.90
66328;DHT22;53133;52.862;6.602;2023-01-13T00:28:23;8.70;99.90
66328;DHT22;53133;52.862;6.602;2023-01-13T00:30:49;8.60;99.90
66328;DHT22;53133;52.862;6.602;2023-01-13T00:33:14;8.60;99.90
66328;DHT22;53133;52.862;6.602;2023-01-13T00:35:40;8.60;99.90
66328;DHT22;53133;52.862;6.602;2023-01-13T00:38:05;8.60;99.90
66328;DHT22;53133;52.862;6.602;2023-01-13T00:40:31;8.50;99.90
66328;DHT22;53133;52.862;6.602;2023-01-13T00:42:57;8.50;99.90
66328;DHT22;53133;52.862;6.602;2023-01-13T00:46:02;8.50;99.90
66328;DHT22;53133;52.862;6.602;2023-01-13T00:48:28;8.40;99.90
66328;DHT22;53133;52.862;6.602;2023-01-13T00:51:01;8.40;99.90
66328;DHT22;53133;52.862;6.602;2023-01-13T00:53:28;8.40;99.90
66328;DHT22;53133;52.862;6.602;2023-01-13T00:56:06;8.40;99.90
66328;DHT22;53133;52.862;6.602;2023-01-13T00:58:33;8.40;99.90
66328;DHT22;53133;52.862;6.602;2023-01-13T01:01:03;8.30;99.90
66328;DHT22;53133;52.862;6.602;2023-01-13T01:03:29;8.30;99.90
66328;DHT22;53133;52.862;6.602;2023-01-13T01:05:56;8.30;99.90
66328;DHT22;53133;52.862;6.602;2023-01-13T01:08:22;8.30;99.90
66328;DHT22;53133;52.862;6.602;2023-01-13T01:10:48;8.30;99.90
66328;DHT22;53133;52.862;6.602;2023-01-13T01:13:13;8.30;99.90
66328;DHT22;53133;52.862;6.602;2023-01-13T01:15:42;8.30;99.90
66328;DHT22;53133;52.862;6.602;2023-01-13T01:18:08;8.40;99.90
66328;DHT22;53133;52.862;6.602;2023-01-13T01:20:35;8.40;99.90
66328;DHT22;53133;52.862;6.602;2023-01-13T01:23:01;8.40;99.90
66328;DHT22;53133;52.862;6.602;2023-01-13T01:25:27;8.40;99.90
66328;DHT22;53133;52.862;6.602;2023-01-13T01:27:52;8.40;99.90
66328;DHT22;53133;52.862;6.602;2023-01-13T01:30:18;8.50;99.90
66328;DHT22;53133;52.862;6.602;2023-01-13T01:32:44;8.50;99.90
66328;DHT22;53133;52.862;6.602;2023-01-13T01:35:09;8.50;99.90
66328;DHT22;53133;52.862;6.602;2023-01-13T01:37:35;8.50;99.90
66328;DHT22;53133;52.862;6.602;2023-01-13T01:40:00;8.50;99.90
66328;DHT22;53133;52.862;6.602;2023-01-13T01:42:26;8.50;99.90
66328;DHT22;53133;52.862;6.602;2023-01-13T01:45:21;8.50;99.90
66328;DHT22;53133;52.862;6.602;2023-01-13T01:47:51;8.50;99.90
66328;DHT22;53133;52.862;6.602;2023-01-13T01:50:19;8.50;99.90
66328;DHT22;53133;52.862;6.602;2023-01-13T01:52:49;8.50;99.90
66328;DHT22;53133;52.862;6.602;2023-01-13T01:55:19;8.40;99.90
66328;DHT22;53133;52.862;6.602;2023-01-13T01:57:57;8.40;99.90
66328;DHT22;53133;52.862;6.602;2023-01-13T02:00:25;8.40;99.90
66328;DHT22;53133;52.862;6.602;2023-01-13T02:02:52;8.40;99.90
66328;DHT22;53133;52.862;6.602;2023-01-13T02:05:18;8.40;99.90
66328;DHT22;53133;52.862;6.602;2023-01-13T02:07:45;8.40;99.90
66328;DHT22;53133;52.862;6.602;2023-01-13T02:10:13;8.40;99.90
66328;DHT22;53133;52.862;6.602;2023-01-13T02:12:41;8.30;99.90
66328;DHT22;53133;52.862;6.602;2023-01-13T02:15:11;8.40;99.90
66328;DHT22;53133;52.862;6.602;2023-01-13T02:29:55;8.30;99.90
66328;DHT22;53133;52.862;6.602;2023-01-13T02:32:58;8.30;99.90
66328;DHT22;53133;52.862;6.602;2023-01-13T02:35:43;8.30;99.90
66328;DHT22;53133;52.862;6.602;2023-01-13T02:38:13;8.30;99.90
66328;DHT22;53133;52.862;6.602;2023-01-13T02:41:07;8.30;99.90
66328;DHT22;53133;52.862;6.602;2023-01-13T02:43:50;8.30;99.90
66328;DHT22;53133;52.862;6.602;2023-01-13T02:46:37;8.20;99.90
66328;DHT22;53133;52.862;6.602;2023-01-13T02:49:09;8.30;99.90
66328;DHT22;53133;52.862;6.602;2023-01-13T02:51:37;8.20;99.90
66328;DHT22;53133;52.862;6.602;2023-01-13T02:54:17;8.20;99.90
66328;DHT22;53133;52.862;6.602;2023-01-13T02:56:49;8.20;99.90
66328;DHT22;53133;52.862;6.602;2023-01-13T02:59:18;8.20;99.90
66328;DHT22;53133;52.862;6.602;2023-01-13T03:01:44;8.20;99.90
66328;DHT22;53133;52.862;6.602;2023-01-13T03:04:12;8.20;99.90
66328;DHT22;53133;52.862;6.602;2023-01-13T03:06:47;8.30;99.90
66328;DHT22;53133;52.862;6.602;2023-01-13T03:09:38;8.30;99.90
66328;DHT22;53133;52.862;6.602;2023-01-13T03:12:18;8.30;99.90
66328;DHT22;53133;52.862;6.602;2023-01-13T03:15:06;8.20;99.90
66328;DHT22;53133;52.862;6.602;2023-01-13T03:17:44;8.30;99.90
66328;DHT22;53133;52.862;6.602;2023-01-13T03:20:19;8.30;99.90
66328;DHT22;53133;52.862;6.602;2023-01-13T03:23:06;8.30;99.90
66328;DHT22;53133;52.862;6.602;2023-01-13T03:25:38;8.30;99.90
66328;DHT22;53133;52.862;6.602;2023-01-13T03:28:12;8.30;99.90
66328;DHT22;53133;52.862;6.602;2023-01-13T03:30:51;8.30;99.90
66328;DHT22;53133;52.862;6.602;2023-01-13T03:33:52;8.30;99.90
66328;DHT22;53133;52.862;6.602;2023-01-13T03:36:22;8.30;99.90
66328;DHT22;53133;52.862;6.602;2023-01-13T03:39:05;8.30;99.90
66328;DHT22;53133;52.862;6.602;2023-01-13T03:41:36;8.30;99.90
66328;DHT22;53133;52.862;6.602;2023-01-13T03:44:10;8.30;99.90
66328;DHT22;53133;52.862;6.602;2023-01-13T03:47:06;8.40;99.90
66328;DHT22;53133;52.862;6.602;2023-01-13T03:50:00;8.40;99.90
66328;DHT22;53133;52.862;6.602;2023-01-13T03:55:40;8.40;99.90
66328;DHT22;53133;52.862;6.602;2023-01-13T03:58:15;8.30;99.90
66328;DHT22;53133;52.862;6.602;2023-01-13T04:01:10;8.30;99.90
66328;DHT22;53133;52.862;6.602;2023-01-13T04:03:59;8.30;99.90
66328;DHT22;53133;52.862;6.602;2023-01-13T04:09:18;8.30;99.90
66328;DHT22;53133;52.862;6.602;2023-01-13T04:11:52;8.30;99.90
66328;DHT22;53133;52.862;6.602;2023-01-13T04:14:20;8.30;99.90
66328;DHT22;53133;52.862;6.602;2023-01-13T04:16:47;8.30;99.90
66328;DHT22;53133;52.862;6.602;2023-01-13T04:19:13;8.30;99.90
66328;DHT22;53133;52.862;6.602;2023-01-13T04:21:38;8.30;99.90
66328;DHT22;53133;52.862;6.602;2023-01-13T04:24:07;8.40;99.90
66328;DHT22;53133;52.862;6.602;2023-01-13T04:26:33;8.40;99.90
66328;DHT22;53133;52.862;6.602;2023-01-13T04:28:59;8.40;99.90
66328;DHT22;53133;52.862;6.602;2023-01-13T04:31:24;8.40;99.90
66328;DHT22;53133;52.862;6.602;2023-01-13T04:33:50;8.40;99.90
66328;DHT22;53133;52.862;6.602;2023-01-13T04:36:15;8.40;99.90
66328;DHT22;53133;52.862;6.602;2023-01-13T04:38:41;8.40;99.90
66328;DHT22;53133;52.862;6.602;2023-01-13T04:41:06;8.40;99.90
66328;DHT22;53133;52.862;6.602;2023-01-13T04:43:32;8.40;99.90
66328;DHT22;53133;52.862;6.602;2023-01-13T04:45:57;8.40;99.90
66328;DHT22;53133;52.862;6.602;2023-01-13T04:48:23;8.40;99.90
66328;DHT22;53133;52.862;6.602;2023-01-13T04:50:49;8.30;99.90
66328;DHT22;53133;52.862;6.602;2023-01-13T04:53:14;8.40;99.90
66328;DHT22;53133;52.862;6.602;2023-01-13T04:55:40;8.30;99.90
66328;DHT22;53133;52.862;6.602;2023-01-13T04:58:07;8.30;99.90
66328;DHT22;53133;52.862;6.602;2023-01-13T05:00:33;8.30;99.90
66328;DHT22;53133;52.862;6.602;2023-01-13T05:03:00;8.30;99.90
66328;DHT22;53133;52.862;6.602;2023-01-13T05:05:27;8.30;99.90
66328;DHT22;53133;52.862;6.602;2023-01-13T05:07:53;8.30;99.90
66328;DHT22;53133;52.862;6.602;2023-01-13T05:10:19;8.30;99.90
66328;DHT22;53133;52.862;6.602;2023-01-13T05:12:45;8.30;99.90
66328;DHT22;53133;52.862;6.602;2023-01-13T05:15:29;8.30;99.90
66328;DHT22;53133;52.862;6.602;2023-01-13T05:18:14;8.30;99.90
66328;DHT22;53133;52.862;6.602;2023-01-13T05:20:40;8.30;99.90
66328;DHT22;53133;52.862;6.602;2023-01-13T05:23:06;8.30;99.90
66328;DHT22;53133;52.862;6.602;2023-01-13T05:25:50;8.30;99.90
66328;DHT22;53133;52.862;6.602;2023-01-13T05:28:16;8.30;99.90
66328;DHT22;53133;52.862;6.602;2023-01-13T05:30:44;8.30;99.90
66328;DHT22;53133;52.862;6.602;2023-01-13T05:33:13;8.30;99.90
66328;DHT22;53133;52.862;6.602;2023-01-13T05:35:43;8.30;99.90
66328;DHT22;53133;52.862;6.602;2023-01-13T05:38:09;8.30;99.90
66328;DHT22;53133;52.862;6.602;2023-01-13T05:40:37;8.30;99.90
66328;DHT22;53133;52.862;6.602;2023-01-13T05:43:21;8.30;99.90
66328;DHT22;53133;52.862;6.602;2023-01-13T05:46:05;8.20;99.90
66328;DHT22;53133;52.862;6.602;2023-01-13T05:48:38;8.20;99.90
66328;DHT22;53133;52.862;6.602;2023-01-13T05:51:06;8.20;99.90
66328;DHT22;53133;52.862;6.602;2023-01-13T05:53:32;8.30;99.90
66328;DHT22;53133;52.862;6.602;2023-01-13T05:55:58;8.20;99.90
66328;DHT22;53133;52.862;6.602;2023-01-13T05:58:25;8.20;99.90
66328;DHT22;53133;52.862;6.602;2023-01-13T06:00:51;8.20;99.90
66328;DHT22;53133;52.862;6.602;2023-01-13T06:03:17;8.20;99.90
66328;DHT22;53133;52.862;6.602;2023-01-13T06:05:46;8.30;99.90
66328;DHT22;53133;52.862;6.602;2023-01-13T06:08:12;8.30;99.90
66328;DHT22;53133;52.862;6.602;2023-01-13T06:10:37;8.30;99.90
66328;DHT22;53133;52.862;6.602;2023-01-13T06:13:04;8.30;99.90
66328;DHT22;53133;52.862;6.602;2023-01-13T06:15:30;8.40;99.90
66328;DHT22;53133;52.862;6.602;2023-01-13T06:17:55;8.40;99.90
66328;DHT22;53133;52.862;6.602;2023-01-13T06:20:22;8.40;99.90
66328;DHT22;53133;52.862;6.602;2023-01-13T06:22:49;8.40;99.90
66328;DHT22;53133;52.862;6.602;2023-01-13T06:25:28;8.40;99.90
66328;DHT22;53133;52.862;6.602;2023-01-13T06:27:55;8.40;99.90
66328;DHT22;53133;52.862;6.602;2023-01-13T06:30:22;8.40;99.90
66328;DHT22;53133;52.862;6.602;2023-01-13T06:32:52;8.40;99.90
66328;DHT22;53133;52.862;6.602;2023-01-13T06:35:24;8.40;99.90
66328;DHT22;53133;52.862;6.602;2023-01-13T06:37:55;8.50;99.90
66328;DHT22;53133;52.862;6.602;2023-01-13T06:40:22;8.40;99.90
66328;DHT22;53133;52.862;6.602;2023-01-13T06:42:49;8.50;99.90
66328;DHT22;53133;52.862;6.602;2023-01-13T06:45:35;8.40;99.90
66328;DHT22;53133;52.862;6.602;2023-01-13T06:48:00;8.40;99.90
66328;DHT22;53133;52.862;6.602;2023-01-13T06:50:26;8.50;99.90
66328;DHT22;53133;52.862;6.602;2023-01-13T06:52:53;8.40;99.90
66328;DHT22;53133;52.862;6.602;2023-01-13T06:55:18;8.50;99.90
66328;DHT22;53133;52.862;6.602;2023-01-13T06:57:55;8.40;99.90
66328;DHT22;53133;52.862;6.602;2023-01-13T07:00:22;8.40;99.90
66328;DHT22;53133;52.862;6.602;2023-01-13T07:02:48;8.40;99.90
66328;DHT22;53133;52.862;6.602;2023-01-13T07:05:15;8.40;99.90
66328;DHT22;53133;52.862;6.602;2023-01-13T07:07:41;8.50;99.90
66328;DHT22;53133;52.862;6.602;2023-01-13T07:10:08;8.50;99.90
66328;DHT22;53133;52.862;6.602;2023-01-13T07:12:38;8.50;99.90
66328;DHT22;53133;52.862;6.602;2023-01-13T07:15:24;8.50;99.90
66328;DHT22;53133;52.862;6.602;2023-01-13T07:17:49;8.40;99.90
66328;DHT22;53133;52.862;6.602;2023-01-13T07:20:15;8.40;99.90
66328;DHT22;53133;52.862;6.602;2023-01-13T07:22:41;8.40;99.90
66328;DHT22;53133;52.862;6.602;2023-01-13T07:25:07;8.40;99.90
66328;DHT22;53133;52.862;6.602;2023-01-13T07:27:33;8.40;99.90
66328;DHT22;53133;52.862;6.602;2023-01-13T07:29:58;8.40;99.90
66328;DHT22;53133;52.862;6.602;2023-01-13T07:32:24;8.40;99.90
66328;DHT22;53133;52.862;6.602;2023-01-13T07:34:50;8.40;99.90
66328;DHT22;53133;52.862;6.602;2023-01-13T07:37:15;8.30;99.90
66328;DHT22;53133;52.862;6.602;2023-01-13T07:39:41;8.40;99.90
66328;DHT22;53133;52.862;6.602;2023-01-13T07:42:07;8.30;99.90
66328;DHT22;53133;52.862;6.602;2023-01-13T07:44:52;8.30;99.90
66328;DHT22;53133;52.862;6.602;2023-01-13T07:47:17;8.30;99.90
66328;DHT22;53133;52.862;6.602;2023-01-13T07:49:47;8.30;99.90
66328;DHT22;53133;52.862;6.602;2023-01-13T07:52:13;8.20;99.90
66328;DHT22;53133;52.862;6.602;2023-01-13T07:54:38;8.30;99.90
66328;DHT22;53133;52.862;6.602;2023-01-13T07:57:04;8.20;99.90
66328;DHT22;53133;52.862;6.602;2023-01-13T07:59:30;8.20;99.90
66328;DHT22;53133;52.862;6.602;2023-01-13T08:01:55;8.20;99.90
66328;DHT22;53133;52.862;6.602;2023-01-13T08:04:21;8.10;99.90
66328;DHT22;53133;52.862;6.602;2023-01-13T08:06:47;8.10;99.90
66328;DHT22;53133;52.862;6.602;2023-01-13T08:09:13;8.10;99.90
66328;DHT22;53133;52.862;6.602;2023-01-13T08:11:38;8.10;99.90
66328;DHT22;53133;52.862;6.602;2023-01-13T08:14:07;8.10;99.90
66328;DHT22;53133;52.862;6.602;2023-01-13T08:16:33;8.10;99.90
66328;DHT22;53133;52.862;6.602;2023-01-13T08:18:59;8.10;99.90
66328;DHT22;53133;52.862;6.602;2023-01-13T08:21:25;8.10;99.90
66328;DHT22;53133;52.862;6.602;2023-01-13T08:23:50;8.10;99.90
66328;DHT22;53133;52.862;6.602;2023-01-13T08:26:17;8.10;99.90
66328;DHT22;53133;52.862;6.602;2023-01-13T08:28:43;8.10;99.90
66328;DHT22;53133;52.862;6.602;2023-01-13T08:31:11;8.10;99.90
66328;DHT22;53133;52.862;6.602;2023-01-13T08:33:38;8.10;99.90
66328;DHT22;53133;52.862;6.602;2023-01-13T08:36:05;8.10;99.90
66328;DHT22;53133;52.862;6.602;2023-01-13T08:38:32;8.10;99.90
66328;DHT22;53133;52.862;6.602;2023-01-13T08:40:59;8.10;99.90
66328;DHT22;53133;52.862;6.602;2023-01-13T08:43:25;8.00;99.90
66328;DHT22;53133;52.862;6.602;2023-01-13T08:45:58;8.10;99.90
66328;DHT22;53133;52.862;6.602;2023-01-13T08:48:25;8.10;99.90
66328;DHT22;53133;52.862;6.602;2023-01-13T08:50:51;8.10;99.90
66328;DHT22;53133;52.862;6.602;2023-01-13T08:53:18;8.10;99.90
66328;DHT22;53133;52.862;6.602;2023-01-13T08:55:44;8.10;99.90
66328;DHT22;53133;52.862;6.602;2023-01-13T08:58:10;8.10;99.90
66328;DHT22;53133;52.862;6.602;2023-01-13T09:00:35;8.10;99.90
66328;DHT22;53133;52.862;6.602;2023-01-13T09:03:04;8.10;99.90
66328;DHT22;53133;52.862;6.602;2023-01-13T09:05:29;8.10;99.90
66328;DHT22;53133;52.862;6.602;2023-01-13T09:07:55;8.10;99.90
66328;DHT22;53133;52.862;6.602;2023-01-13T09:10:21;8.10;99.90
66328;DHT22;53133;52.862;6.602;2023-01-13T09:12:49;8.10;99.90
66328;DHT22;53133;52.862;6.602;2023-01-13T09:15:33;8.10;99.90
66328;DHT22;53133;52.862;6.602;2023-01-13T09:17:59;8.10;99.90
66328;DHT22;53133;52.862;6.602;2023-01-13T09:20:26;8.10;99.90
66328;DHT22;53133;52.862;6.602;2023-01-13T09:22:51;8.10;99.90
66328;DHT22;53133;52.862;6.602;2023-01-13T09:25:17;8.10;99.90
66328;DHT22;53133;52.862;6.602;2023-01-13T09:27:42;8.10;99.90
66328;DHT22;53133;52.862;6.602;2023-01-13T09:30:08;8.20;99.90
66328;DHT22;53133;52.862;6.602;2023-01-13T09:32:34;8.20;99.90
66328;DHT22;53133;52.862;6.602;2023-01-13T09:35:01;8.20;99.90
66328;DHT22;53133;52.862;6.602;2023-01-13T09:37:30;8.30;99.90
66328;DHT22;53133;52.862;6.602;2023-01-13T09:39:58;8.20;99.90
66328;DHT22;53133;52.862;6.602;2023-01-13T09:53:33;8.20;99.90
66328;DHT22;53133;52.862;6.602;2023-01-13T09:56:01;8.20;99.90
66328;DHT22;53133;52.862;6.602;2023-01-13T09:58:26;8.20;99.90
66328;DHT22;53133;52.862;6.602;2023-01-13T10:03:39;8.10;99.90
66328;DHT22;53133;52.862;6.602;2023-01-13T10:06:20;8.10;99.90
66328;DHT22;53133;52.862;6.602;2023-01-13T10:08:48;8.10;99.90
66328;DHT22;53133;52.862;6.602;2023-01-13T10:11:20;8.10;99.90
66328;DHT22;53133;52.862;6.602;2023-01-13T10:19:32;8.10;99.90
66328;DHT22;53133;52.862;6.602;2023-01-13T10:25:12;8.10;99.90
66328;DHT22;53133;52.862;6.602;2023-01-13T10:27:46;8.10;99.90
66328;DHT22;53133;52.862;6.602;2023-01-13T10:32:57;8.10;99.90
66328;DHT22;53133;52.862;6.602;2023-01-13T10:41:26;8.20;99.90
66328;DHT22;53133;52.862;6.602;2023-01-13T10:44:02;8.20;99.90
66328;DHT22;53133;52.862;6.602;2023-01-13T10:46:33;8.20;99.90
66328;DHT22;53133;52.862;6.602;2023-01-13T10:49:21;8.20;99.90
66328;DHT22;53133;52.862;6.602;2023-01-13T10:51:49;8.20;99.90
66328;DHT22;53133;52.862;6.602;2023-01-13T10:54:22;8.20;99.90
66328;DHT22;53133;52.862;6.602;2023-01-13T10:56:49;8.20;99.90
66328;DHT22;53133;52.862;6.602;2023-01-13T10:59:30;8.20;99.90
66328;DHT22;53133;52.862;6.602;2023-01-13T11:01:59;8.20;99.90
66328;DHT22;53133;52.862;6.602;2023-01-13T11:04:41;8.20;99.90
66328;DHT22;53133;52.862;6.602;2023-01-13T11:07:40;8.20;99.90
66328;DHT22;53133;52.862;6.602;2023-01-13T11:10:15;8.20;99.90
66328;DHT22;53133;52.862;6.602;2023-01-13T11:15:54;8.20;99.90
66328;DHT22;53133;52.862;6.602;2023-01-13T11:21:16;8.20;99.90
66328;DHT22;53133;52.862;6.602;2023-01-13T11:23:49;8.20;99.90
66328;DHT22;53133;52.862;6.602;2023-01-13T11:26:26;8.20;99.90
66328;DHT22;53133;52.862;6.602;2023-01-13T11:31:49;8.20;99.90
66328;DHT22;53133;52.862;6.602;2023-01-13T11:34:35;8.20;99.90
66328;DHT22;53133;52.862;6.602;2023-01-13T11:37:09;8.20;99.90
66328;DHT22;53133;52.862;6.602;2023-01-13T11:39:43;8.20;99.90
66328;DHT22;53133;52.862;6.602;2023-01-13T11:42:52;8.20;99.90
66328;DHT22;53133;52.862;6.602;2023-01-13T11:45:25;8.20;99.90
66328;DHT22;53133;52.862;6.602;2023-01-13T11:47:56;8.20;99.90
66328;DHT22;53133;52.862;6.602;2023-01-13T11:50:45;8.20;99.90
66328;DHT22;53133;52.862;6.602;2023-01-13T11:56:46;8.20;99.90
66328;DHT22;53133;52.862;6.602;2023-01-13T12:25:02;8.30;99.90
66328;DHT22;53133;52.862;6.602;2023-01-13T12:27:39;8.30;99.90
66328;DHT22;53133;52.862;6.602;2023-01-13T12:30:28;8.30;99.90
66328;DHT22;53133;52.862;6.602;2023-01-13T12:33:02;8.30;99.90
66328;DHT22;53133;52.862;6.602;2023-01-13T12:41:48;8.30;99.90
66328;DHT22;53133;52.862;6.602;2023-01-13T12:44:36;8.30;99.90
66328;DHT22;53133;52.862;6.602;2023-01-13T12:47:02;8.30;99.90
66328;DHT22;53133;52.862;6.602;2023-01-13T12:49:32;8.30;99.90
66328;DHT22;53133;52.862;6.602;2023-01-13T12:52:11;8.40;99.90
66328;DHT22;53133;52.862;6.602;2023-01-13T13:00:11;8.40;99.90
66328;DHT22;53133;52.862;6.602;2023-01-13T13:02:38;8.40;99.90
66328;DHT22;53133;52.862;6.602;2023-01-13T13:07:43;8.40;99.90
66328;DHT22;53133;52.862;6.602;2023-01-13T13:10:27;8.40;99.90
66328;DHT22;53133;52.862;6.602;2023-01-13T13:12:56;8.40;99.90
66328;DHT22;53133;52.862;6.602;2023-01-13T13:15:40;8.40;99.90
66328;DHT22;53133;52.862;6.602;2023-01-13T13:18:24;8.40;99.90
66328;DHT22;53133;52.862;6.602;2023-01-13T13:20:59;8.40;99.90
66328;DHT22;53133;52.862;6.602;2023-01-13T13:24:07;8.40;99.90
66328;DHT22;53133;52.862;6.602;2023-01-13T13:26:42;8.40;99.90
66328;DHT22;53133;52.862;6.602;2023-01-13T13:29:41;8.40;99.90
66328;DHT22;53133;52.862;6.602;2023-01-13T13:37:53;8.50;99.90
66328;DHT22;53133;52.862;6.602;2023-01-13T13:40:43;8.50;99.90
66328;DHT22;53133;52.862;6.602;2023-01-13T13:43:38;8.50;99.90
66328;DHT22;53133;52.862;6.602;2023-01-13T13:46:25;8.50;99.90
66328;DHT22;53133;52.862;6.602;2023-01-13T13:49:10;8.50;99.90
66328;DHT22;53133;52.862;6.602;2023-01-13T13:51:43;8.50;99.90
66328;DHT22;53133;52.862;6.602;2023-01-13T13:54:16;8.50;99.90
66328;DHT22;53133;52.862;6.602;2023-01-13T13:56:44;8.50;99.90
66328;DHT22;53133;52.862;6.602;2023-01-13T13:59:12;8.50;99.90
66328;DHT22;53133;52.862;6.602;2023-01-13T14:01:42;8.50;99.90
66328;DHT22;53133;52.862;6.602;2023-01-13T14:04:19;8.50;99.90
66328;DHT22;53133;52.862;6.602;2023-01-13T14:07:17;8.60;99.90
66328;DHT22;53133;52.862;6.602;2023-01-13T14:09:49;8.60;99.90
66328;DHT22;53133;52.862;6.602;2023-01-13T14:12:20;8.60;99.90
66328;DHT22;53133;52.862;6.602;2023-01-13T14:14:46;8.50;99.90
66328;DHT22;53133;52.862;6.602;2023-01-13T14:17:24;8.50;99.90
66328;DHT22;53133;52.862;6.602;2023-01-13T14:20:14;8.50;99.90
66328;DHT22;53133;52.862;6.602;2023-01-13T14:22:48;8.50;99.90
66328;DHT22;53133;52.862;6.602;2023-01-13T14:28:17;8.50;99.90
66328;DHT22;53133;52.862;6.602;2023-01-13T14:30:45;8.50;99.90
66328;DHT22;53133;52.862;6.602;2023-01-13T14:33:17;8.50;99.90
66328;DHT22;53133;52.862;6.602;2023-01-13T14:36:21;8.50;99.90
66328;DHT22;53133;52.862;6.602;2023-01-13T14:44:23;8.40;99.90
66328;DHT22;53133;52.862;6.602;2023-01-13T14:46:52;8.40;99.90
66328;DHT22;53133;52.862;6.602;2023-01-13T14:51:45;8.40;99.90
66328;DHT22;53133;52.862;6.602;2023-01-13T14:54:43;8.40;99.90
66328;DHT22;53133;52.862;6.602;2023-01-13T14:59:48;8.40;99.90
66328;DHT22;53133;52.862;6.602;2023-01-13T15:02:43;8.40;99.90
66328;DHT22;53133;52.862;6.602;2023-01-13T15:07:59;8.40;99.90
66328;DHT22;53133;52.862;6.602;2023-01-13T15:10:32;8.40;99.90
66328;DHT22;53133;52.862;6.602;2023-01-13T15:13:00;8.40;99.90
66328;DHT22;53133;52.862;6.602;2023-01-13T15:15:30;8.40;99.90
66328;DHT22;53133;52.862;6.602;2023-01-13T15:17:58;8.50;99.90
66328;DHT22;53133;52.862;6.602;2023-01-13T15:20:24;8.50;99.90
66328;DHT22;53133;52.862;6.602;2023-01-13T15:22:52;8.50;99.90
66328;DHT22;53133;52.862;6.602;2023-01-13T15:25:18;8.50;99.90
66328;DHT22;53133;52.862;6.602;2023-01-13T15:27:46;8.50;99.90
66328;DHT22;53133;52.862;6.602;2023-01-13T15:30:23;8.50;99.90
66328;DHT22;53133;52.862;6.602;2023-01-13T15:32:53;8.50;99.90
66328;DHT22;53133;52.862;6.602;2023-01-13T15:35:21;8.50;99.90
66328;DHT22;53133;52.862;6.602;2023-01-13T15:37:47;8.40;99.90
66328;DHT22;53133;52.862;6.602;2023-01-13T15:40:22;8.50;99.90
66328;DHT22;53133;52.862;6.602;2023-01-13T15:42:48;8.40;99.90
66328;DHT22;53133;52.862;6.602;2023-01-13T15:45:33;8.40;99.90
66328;DHT22;53133;52.862;6.602;2023-01-13T15:48:23;8.40;99.90
66328;DHT22;53133;52.862;6.602;2023-01-13T15:50:49;8.40;99.90
66328;DHT22;53133;52.862;6.602;2023-01-13T15:53:15;8.30;99.90
66328;DHT22;53133;52.862;6.602;2023-01-13T15:55:43;8.30;99.90
66328;DHT22;53133;52.862;6.602;2023-01-13T15:58:11;8.30;99.90
66328;DHT22;53133;52.862;6.602;2023-01-13T16:00:37;8.30;99.90
66328;DHT22;53133;52.862;6.602;2023-01-13T16:03:03;8.30;99.90
66328;DHT22;53133;52.862;6.602;2023-01-13T16:05:29;8.30;99.90
66328;DHT22;53133;52.862;6.602;2023-01-13T16:07:54;8.30;99.90
66328;DHT22;53133;52.862;6.602;2023-01-13T16:10:22;8.30;99.90
66328;DHT22;53133;52.862;6.602;2023-01-13T16:12:48;8.30;99.90
66328;DHT22;53133;52.862;6.602;2023-01-13T16:15:15;8.30;99.90
66328;DHT22;53133;52.862;6.602;2023-01-13T16:17:45;8.30;99.90
66328;DHT22;53133;52.862;6.602;2023-01-13T16:20:13;8.30;99.90
66328;DHT22;53133;52.862;6.602;2023-01-13T16:22:39;8.30;99.90
66328;DHT22;53133;52.862;6.602;2023-01-13T16:25:05;8.30;99.90
66328;DHT22;53133;52.862;6.602;2023-01-13T16:27:30;8.30;99.90
66328;DHT22;53133;52.862;6.602;2023-01-13T16:29:56;8.20;99.90
66328;DHT22;53133;52.862;6.602;2023-01-13T16:32:22;8.30;99.90
66328;DHT22;53133;52.862;6.602;2023-01-13T16:34:47;8.30;99.90
66328;DHT22;53133;52.862;6.602;2023-01-13T16:37:22;8.30;99.90
66328;DHT22;53133;52.862;6.602;2023-01-13T16:39:47;8.30;99.90
66328;DHT22;53133;52.862;6.602;2023-01-13T16:42:13;8.30;99.90
66328;DHT22;53133;52.862;6.602;2023-01-13T16:44:39;8.30;99.90
66328;DHT22;53133;52.862;6.602;2023-01-13T16:47:07;8.30;99.90
66328;DHT22;53133;52.862;6.602;2023-01-13T16:49:34;8.30;99.90
66328;DHT22;53133;52.862;6.602;2023-01-13T16:52:00;8.20;99.90
66328;DHT22;53133;52.862;6.602;2023-01-13T16:54:25;8.20;99.90
66328;DHT22;53133;52.862;6.602;2023-01-13T16:56:51;8.20;99.90
66328;DHT22;53133;52.862;6.602;2023-01-13T16:59:16;8.20;99.90
66328;DHT22;53133;52.862;6.602;2023-01-13T17:01:43;8.10;99.90
66328;DHT22;53133;52.862;6.602;2023-01-13T17:04:17;8.10;99.90
66328;DHT22;53133;52.862;6.602;2023-01-13T17:06:56;8.20;99.90
66328;DHT22;53133;52.862;6.602;2023-01-13T17:09:24;8.20;99.90
66328;DHT22;53133;52.862;6.602;2023-01-13T17:11:50;8.20;99.90
66328;DHT22;53133;52.862;6.602;2023-01-13T17:14:16;8.10;99.90
66328;DHT22;53133;52.862;6.602;2023-01-13T17:16:44;8.10;99.90
66328;DHT22;53133;52.862;6.602;2023-01-13T17:19:10;8.10;99.90
66328;DHT22;53133;52.862;6.602;2023-01-13T17:21:36;8.10;99.90
66328;DHT22;53133;52.862;6.602;2023-01-13T17:24:02;8.10;99.90
66328;DHT22;53133;52.862;6.602;2023-01-13T17:26:36;8.10;99.90
66328;DHT22;53133;52.862;6.602;2023-01-13T17:29:04;8.10;99.90
66328;DHT22;53133;52.862;6.602;2023-01-13T17:31:31;8.10;99.90
66328;DHT22;53133;52.862;6.602;2023-01-13T17:33:56;8.10;99.90
66328;DHT22;53133;52.862;6.602;2023-01-13T17:36:22;8.10;99.90
66328;DHT22;53133;52.862;6.602;2023-01-13T17:38:48;8.10;99.90
66328;DHT22;53133;52.862;6.602;2023-01-13T17:41:13;8.10;99.90
66328;DHT22;53133;52.862;6.602;2023-01-13T17:43:39;8.10;99.90
66328;DHT22;53133;52.862;6.602;2023-01-13T17:46:09;8.20;99.90
66328;DHT22;53133;52.862;6.602;2023-01-13T17:48:34;8.10;99.90
66328;DHT22;53133;52.862;6.602;2023-01-13T17:51:00;8.10;99.90
66328;DHT22;53133;52.862;6.602;2023-01-13T17:53:26;8.10;99.90
66328;DHT22;53133;52.862;6.602;2023-01-13T17:55:53;8.20;99.90
66328;DHT22;53133;52.862;6.602;2023-01-13T17:58:20;8.10;99.90
66328;DHT22;53133;52.862;6.602;2023-01-13T18:00:46;8.10;99.90
66328;DHT22;53133;52.862;6.602;2023-01-13T18:03:11;8.10;99.90
66328;DHT22;53133;52.862;6.602;2023-01-13T18:05:37;8.10;99.90
66328;DHT22;53133;52.862;6.602;2023-01-13T18:08:03;8.10;99.90
66328;DHT22;53133;52.862;6.602;2023-01-13T18:10:29;8.10;99.90
66328;DHT22;53133;52.862;6.602;2023-01-13T18:12:54;8.10;99.90